createdAt,value
2023-06-09T00:00:07.174Z,224.82
2023-06-09T00:01:07.190Z,225.55
2023-06-09T00:02:07.261Z,226.04
2023-06-09T00:03:07.364Z,224.02
2023-06-09T00:04:07.336Z,225.02
2023-06-09T00:05:07.540Z,223.07
2023-06-09T00:06:07.378Z,225.09
2023-06-09T00:07:07.413Z,226.19
2023-06-09T00:08:07.453Z,222.87
2023-06-09T00:09:07.511Z,225.20
2023-06-09T00:10:07.585Z,223.23
2023-06-09T00:11:07.584Z,223.35
2023-06-09T00:12:07.626Z,223.77
2023-06-09T00:13:07.661Z,223.78
2023-06-09T00:14:07.693Z,224.31
2023-06-09T00:15:07.917Z,224.40
2023-06-09T00:16:07.783Z,224.87
2023-06-09T00:17:07.852Z,222.43
2023-06-09T00:18:07.914Z,224.25
2023-06-09T00:19:07.921Z,224.15
2023-06-09T00:20:07.952Z,223.14
2023-06-09T00:21:07.992Z,223.85
2023-06-09T00:22:08.032Z,226.05
2023-06-09T00:23:08.078Z,224.24
2023-06-09T00:24:08.173Z,222.81
2023-06-09T00:25:08.389Z,224.04
2023-06-09T00:26:08.207Z,224.46
2023-06-09T00:27:08.237Z,223.89
2023-06-09T00:28:08.280Z,225.79
2023-06-09T00:29:08.304Z,223.07
2023-06-09T00:30:08.383Z,225.18
2023-06-09T00:31:08.453Z,226.39
2023-06-09T00:32:08.449Z,224.23
2023-06-09T00:33:08.622Z,225.78
2023-06-09T00:34:08.551Z,224.39
2023-06-09T00:35:08.890Z,222.85
2023-06-09T00:36:08.641Z,225.30
2023-06-09T00:37:08.677Z,224.30
2023-06-09T00:38:08.744Z,222.74
2023-06-09T00:39:08.775Z,223.41
2023-06-09T00:40:08.826Z,225.15
2023-06-09T00:41:08.889Z,223.42
2023-06-09T00:42:08.906Z,223.25
2023-06-09T00:43:08.956Z,224.16
2023-06-09T00:44:09.002Z,222.99
2023-06-09T00:45:09.166Z,223.45
2023-06-09T00:46:09.113Z,226.44
2023-06-09T00:47:09.194Z,224.90
2023-06-09T00:48:09.204Z,224.53
2023-06-09T00:49:09.222Z,225.69
2023-06-09T00:50:09.269Z,224.89
2023-06-09T00:51:09.319Z,224.31
2023-06-09T00:52:09.356Z,225.10
2023-06-09T00:53:09.429Z,225.13
2023-06-09T00:54:09.457Z,224.06
2023-06-09T00:55:09.509Z,223.56
2023-06-09T00:56:09.643Z,222.75
2023-06-09T00:57:09.625Z,222.78
2023-06-09T00:58:09.652Z,222.74
2023-06-09T00:59:09.703Z,223.21
2023-06-09T01:00:09.757Z,221.57
2023-06-09T01:01:09.847Z,221.10
2023-06-09T01:02:09.854Z,222.76
2023-06-09T01:03:09.987Z,223.94
2023-06-09T01:04:09.963Z,223.88
2023-06-09T01:05:10.018Z,223.46
2023-06-09T01:06:10.047Z,223.91
2023-06-09T01:07:10.096Z,223.23
2023-06-09T01:08:10.163Z,223.70
2023-06-09T01:09:10.197Z,222.40
2023-06-09T01:10:10.264Z,224.93
2023-06-09T01:11:10.303Z,224.15
2023-06-09T01:12:10.337Z,222.79
2023-06-09T01:13:10.397Z,222.88
2023-06-09T01:14:10.450Z,224.95
2023-06-09T01:15:10.597Z,224.31
2023-06-09T01:16:10.586Z,223.27
2023-06-09T01:17:10.641Z,224.32
2023-06-09T01:18:10.664Z,222.29
2023-06-09T01:19:10.706Z,221.82
2023-06-09T01:20:10.759Z,223.17
2023-06-09T01:21:10.815Z,223.78
2023-06-09T01:22:10.876Z,223.61
2023-06-09T01:23:10.907Z,222.88
2023-06-09T01:24:11.002Z,222.39
2023-06-09T01:25:11.006Z,224.08
2023-06-09T01:26:11.046Z,224.09
2023-06-09T01:27:11.090Z,224.15
2023-06-09T01:28:11.137Z,220.60
2023-06-09T01:29:11.180Z,221.30
2023-06-09T01:30:11.231Z,222.05
2023-06-09T01:31:11.269Z,219.87
2023-06-09T01:32:11.320Z,221.97
2023-06-09T01:33:11.431Z,224.17
2023-06-09T01:34:12.132Z,221.63
2023-06-09T01:35:11.489Z,221.12
2023-06-09T01:36:11.512Z,223.82
2023-06-09T01:37:11.569Z,222.05
2023-06-09T01:38:11.630Z,222.74
2023-06-09T01:39:11.671Z,223.26
2023-06-09T01:40:11.755Z,223.41
2023-06-09T01:41:11.777Z,222.25
2023-06-09T01:42:11.844Z,221.72
2023-06-09T01:43:11.882Z,223.24
2023-06-09T01:44:11.934Z,220.55
2023-06-09T01:45:11.982Z,222.61
2023-06-09T01:46:12.134Z,219.59
2023-06-09T01:47:12.094Z,221.51
2023-06-09T01:48:12.188Z,221.53
2023-06-09T01:49:12.181Z,221.38
2023-06-09T01:50:12.232Z,220.76
2023-06-09T01:51:12.281Z,222.93
2023-06-09T01:52:13.143Z,222.08
2023-06-09T01:53:13.506Z,222.68
2023-06-09T01:54:12.578Z,217.65
2023-06-09T01:55:12.626Z,222.38
2023-06-09T01:56:12.668Z,221.30
2023-06-09T01:57:12.717Z,222.14
2023-06-09T01:58:12.821Z,220.31
2023-06-09T01:59:12.825Z,220.77
2023-06-09T02:00:12.871Z,221.91
2023-06-09T02:01:12.962Z,220.77
2023-06-09T02:02:12.974Z,219.49
2023-06-09T02:03:13.153Z,218.56
2023-06-09T02:04:13.209Z,221.24
2023-06-09T02:05:13.144Z,219.57
2023-06-09T02:06:13.195Z,220.27
2023-06-09T02:07:13.236Z,219.83
2023-06-09T02:08:13.292Z,220.23
2023-06-09T02:09:13.361Z,220.44
2023-06-09T02:10:13.394Z,220.47
2023-06-09T02:11:13.450Z,220.61
2023-06-09T02:12:13.506Z,220.15
2023-06-09T02:13:13.574Z,220.07
2023-06-09T02:14:13.620Z,220.19
2023-06-09T02:15:13.671Z,218.29
2023-06-09T02:16:13.727Z,220.98
2023-06-09T02:17:13.775Z,219.47
2023-06-09T02:18:13.806Z,219.20
2023-06-09T02:19:13.863Z,215.85
2023-06-09T02:20:13.925Z,220.05
2023-06-09T02:21:13.983Z,218.12
2023-06-09T02:22:14.030Z,216.86
2023-06-09T02:23:14.077Z,218.48
2023-06-09T02:24:14.197Z,217.13
2023-06-09T02:25:14.178Z,216.78
2023-06-09T02:26:14.210Z,218.34
2023-06-09T02:27:14.272Z,218.47
2023-06-09T02:28:14.299Z,218.63
2023-06-09T02:29:14.343Z,217.33
2023-06-09T02:30:14.396Z,216.98
2023-06-09T02:31:14.496Z,218.55
2023-06-09T02:32:14.505Z,220.29
2023-06-09T02:33:14.549Z,218.70
2023-06-09T02:34:14.601Z,214.77
2023-06-09T02:35:14.666Z,216.14
2023-06-09T02:36:14.705Z,218.83
2023-06-09T02:37:14.780Z,219.12
2023-06-09T02:38:14.823Z,216.88
2023-06-09T02:39:14.864Z,218.86
2023-06-09T02:40:14.953Z,218.46
2023-06-09T02:41:14.981Z,220.50
2023-06-09T02:42:15.040Z,215.54
2023-06-09T02:43:15.084Z,217.31
2023-06-09T02:44:15.150Z,216.32
2023-06-09T02:45:15.204Z,218.77
2023-06-09T02:46:15.358Z,217.68
2023-06-09T02:47:15.363Z,216.83
2023-06-09T02:48:15.396Z,216.35
2023-06-09T02:49:15.453Z,217.02
2023-06-09T02:50:15.518Z,216.02
2023-06-09T02:51:15.596Z,217.14
2023-06-09T02:52:15.626Z,215.63
2023-06-09T02:53:15.707Z,219.85
2023-06-09T02:54:18.219Z,218.44
2023-06-09T02:55:15.736Z,217.63
2023-06-09T02:56:15.732Z,216.53
2023-06-09T02:57:15.734Z,215.55
2023-06-09T02:58:15.735Z,219.47
2023-06-09T02:59:15.740Z,215.30
2023-06-09T03:00:15.747Z,217.90
2023-06-09T03:01:15.770Z,217.84
2023-06-09T03:02:15.752Z,216.99
2023-06-09T03:03:15.863Z,217.20
2023-06-09T03:04:15.835Z,218.71
2023-06-09T03:05:15.758Z,217.68
2023-06-09T03:06:15.866Z,216.68
2023-06-09T03:07:15.772Z,218.30
2023-06-09T03:08:15.808Z,217.64
2023-06-09T03:09:15.781Z,218.41
2023-06-09T03:10:15.781Z,216.81
2023-06-09T03:11:15.783Z,218.89
2023-06-09T03:12:15.779Z,215.28
2023-06-09T03:13:15.782Z,217.67
2023-06-09T03:14:15.795Z,218.50
2023-06-09T03:15:15.773Z,214.87
2023-06-09T03:16:15.778Z,217.71
2023-06-09T03:17:15.875Z,214.41
2023-06-09T03:18:15.787Z,218.80
2023-06-09T03:19:15.784Z,215.49
2023-06-09T03:20:15.773Z,218.44
2023-06-09T03:21:15.768Z,215.07
2023-06-09T03:22:15.767Z,214.48
2023-06-09T03:23:15.763Z,217.97
2023-06-09T03:24:15.832Z,215.45
2023-06-09T03:25:15.756Z,216.93
2023-06-09T03:26:15.769Z,220.18
2023-06-09T03:27:15.757Z,217.85
2023-06-09T03:28:16.681Z,217.36
2023-06-09T03:29:15.748Z,214.44
2023-06-09T03:30:15.741Z,218.05
2023-06-09T03:31:15.796Z,216.07
2023-06-09T03:32:15.744Z,216.31
2023-06-09T03:33:15.751Z,214.75
2023-06-09T03:34:15.737Z,215.37
2023-06-09T03:35:15.736Z,216.10
2023-06-09T03:36:15.730Z,217.55
2023-06-09T03:37:15.753Z,214.31
2023-06-09T03:38:15.763Z,217.76
2023-06-09T03:39:15.826Z,216.01
2023-06-09T03:40:15.885Z,215.82
2023-06-09T03:41:15.951Z,214.35
2023-06-09T03:42:16.023Z,215.83
2023-06-09T03:43:16.066Z,217.61
2023-06-09T03:44:16.137Z,214.03
2023-06-09T03:45:16.188Z,216.66
2023-06-09T03:46:16.283Z,213.98
2023-06-09T03:47:16.316Z,213.98
2023-06-09T03:48:16.414Z,216.43
2023-06-09T03:49:16.444Z,216.50
2023-06-09T03:50:16.510Z,218.99
2023-06-09T03:51:16.571Z,216.46
2023-06-09T03:52:16.630Z,213.39
2023-06-09T03:53:16.692Z,215.24
2023-06-09T03:54:16.738Z,217.77
2023-06-09T03:55:16.811Z,212.36
2023-06-09T03:56:16.898Z,214.56
2023-06-09T03:57:16.953Z,215.78
2023-06-09T03:58:16.995Z,214.60
2023-06-09T03:59:17.053Z,215.66
2023-06-09T04:00:17.135Z,214.17
2023-06-09T04:01:17.181Z,214.67
2023-06-09T04:02:17.322Z,211.90
2023-06-09T04:03:17.344Z,212.10
2023-06-09T04:04:17.429Z,215.95
2023-06-09T04:05:17.411Z,212.77
2023-06-09T04:06:17.512Z,214.28
2023-06-09T04:07:17.530Z,212.42
2023-06-09T04:08:17.598Z,215.13
2023-06-09T04:09:17.659Z,215.44
2023-06-09T04:10:17.712Z,212.48
2023-06-09T04:11:17.768Z,215.35
2023-06-09T04:12:17.842Z,215.93
2023-06-09T04:13:17.911Z,213.52
2023-06-09T04:14:17.945Z,213.07
2023-06-09T04:15:18.003Z,211.79
2023-06-09T04:16:18.073Z,214.12
2023-06-09T04:17:18.090Z,212.43
2023-06-09T04:18:18.232Z,211.22
2023-06-09T04:19:18.207Z,214.27
2023-06-09T04:20:18.263Z,209.56
2023-06-09T04:21:18.332Z,212.41
2023-06-09T04:22:18.375Z,212.20
2023-06-09T04:23:18.434Z,213.62
2023-06-09T04:24:18.644Z,214.44
2023-06-09T04:25:18.551Z,212.92
2023-06-09T04:26:18.607Z,212.42
2023-06-09T04:27:18.657Z,211.69
2023-06-09T04:28:18.806Z,207.69
2023-06-09T04:29:18.794Z,209.31
2023-06-09T04:30:18.849Z,211.60
2023-06-09T04:31:18.882Z,208.16
2023-06-09T04:32:18.993Z,206.52
2023-06-09T04:33:19.034Z,208.13
2023-06-09T04:34:19.071Z,209.26
2023-06-09T04:35:19.095Z,208.14
2023-06-09T04:36:19.139Z,207.83
2023-06-09T04:37:19.186Z,208.21
2023-06-09T04:38:19.238Z,209.46
2023-06-09T04:39:19.286Z,206.77
2023-06-09T04:40:19.338Z,206.02
2023-06-09T04:41:19.391Z,203.49
2023-06-09T04:42:19.432Z,207.12
2023-06-09T04:43:19.477Z,208.44
2023-06-09T04:44:19.555Z,207.12
2023-06-09T04:45:19.555Z,205.94
2023-06-09T04:46:19.608Z,207.38
2023-06-09T04:47:19.625Z,206.12
2023-06-09T04:48:19.673Z,207.82
2023-06-09T04:49:19.714Z,204.99
2023-06-09T04:50:19.747Z,206.48
2023-06-09T04:51:19.777Z,207.14
2023-06-09T04:52:19.820Z,206.66
2023-06-09T04:53:19.856Z,208.88
2023-06-09T04:54:19.887Z,207.05
2023-06-09T04:55:19.926Z,208.85
2023-06-09T04:56:19.958Z,207.50
2023-06-09T04:57:19.983Z,204.91
2023-06-09T04:58:20.011Z,206.14
2023-06-09T04:59:20.043Z,207.41
2023-06-09T05:00:20.090Z,209.47
2023-06-09T05:01:20.135Z,207.24
2023-06-09T05:02:20.124Z,205.79
2023-06-09T05:03:20.132Z,205.28
2023-06-09T05:04:20.168Z,207.20
2023-06-09T05:05:20.225Z,202.04
2023-06-09T05:06:20.216Z,202.71
2023-06-09T05:07:20.232Z,204.06
2023-06-09T05:08:22.094Z,204.72
2023-06-09T05:09:20.267Z,201.79
2023-06-09T05:10:20.270Z,201.04
2023-06-09T05:11:20.299Z,198.73
2023-06-09T05:12:20.319Z,198.43
2023-06-09T05:13:20.326Z,197.18
2023-06-09T05:14:20.340Z,197.74
2023-06-09T05:15:20.512Z,195.39
2023-06-09T05:16:20.409Z,195.82
2023-06-09T05:17:20.383Z,195.25
2023-06-09T05:18:20.515Z,195.84
2023-06-09T05:19:20.415Z,192.74
2023-06-09T05:20:20.423Z,191.92
2023-06-09T05:21:20.433Z,189.41
2023-06-09T05:22:20.531Z,193.57
2023-06-09T05:23:20.512Z,190.56
2023-06-09T05:24:20.651Z,190.23
2023-06-09T05:25:20.565Z,190.56
2023-06-09T05:26:20.538Z,189.93
2023-06-09T05:27:20.526Z,185.11
2023-06-09T05:28:20.533Z,186.62
2023-06-09T05:29:20.530Z,189.72
2023-06-09T05:30:20.568Z,188.05
2023-06-09T05:31:20.701Z,187.57
2023-06-09T05:32:20.733Z,185.93
2023-06-09T05:33:20.701Z,187.25
2023-06-09T05:34:20.696Z,187.27
2023-06-09T05:35:20.705Z,182.44
2023-06-09T05:36:20.676Z,183.18
2023-06-09T05:37:20.676Z,182.78
2023-06-09T05:38:20.752Z,185.12
2023-06-09T05:39:20.727Z,181.17
2023-06-09T05:40:20.757Z,183.21
2023-06-09T05:41:20.733Z,183.21
2023-06-09T05:42:20.722Z,180.06
2023-06-09T05:43:20.720Z,180.96
2023-06-09T05:44:20.741Z,181.64
2023-06-09T05:45:20.791Z,179.22
2023-06-09T05:46:20.880Z,180.24
2023-06-09T05:47:20.966Z,180.28
2023-06-09T05:48:20.940Z,178.70
2023-06-09T05:49:20.971Z,181.44
2023-06-09T05:50:20.988Z,180.38
2023-06-09T05:51:20.990Z,177.58
2023-06-09T05:52:20.972Z,179.18
2023-06-09T05:53:20.979Z,177.51
2023-06-09T05:54:21.012Z,178.55
2023-06-09T05:55:21.150Z,180.06
2023-06-09T05:56:21.141Z,179.91
2023-06-09T05:57:21.209Z,179.75
2023-06-09T05:58:21.203Z,180.51
2023-06-09T05:59:21.260Z,178.60
2023-06-09T06:00:21.311Z,181.64
2023-06-09T06:01:21.400Z,177.44
2023-06-09T06:02:21.564Z,178.38
2023-06-09T06:03:21.553Z,176.36
2023-06-09T06:04:21.552Z,177.13
2023-06-09T06:05:22.266Z,175.03
2023-06-09T06:06:21.635Z,177.34
2023-06-09T06:07:21.644Z,176.62
2023-06-09T06:08:21.685Z,179.55
2023-06-09T06:09:21.759Z,177.77
2023-06-09T06:10:21.765Z,176.52
2023-06-09T06:11:21.807Z,175.53
2023-06-09T06:12:21.847Z,176.57
2023-06-09T06:13:21.884Z,177.88
2023-06-09T06:14:21.925Z,176.53
2023-06-09T06:15:21.977Z,174.45
2023-06-09T06:16:22.083Z,176.69
2023-06-09T06:17:22.048Z,176.30
2023-06-09T06:18:22.075Z,177.10
2023-06-09T06:19:22.134Z,177.87
2023-06-09T06:20:22.151Z,176.73
2023-06-09T06:21:22.179Z,178.30
2023-06-09T06:22:22.215Z,179.59
2023-06-09T06:23:22.247Z,175.31
2023-06-09T06:24:22.330Z,176.81
2023-06-09T06:25:22.297Z,175.27
2023-06-09T06:26:22.343Z,177.62
2023-06-09T06:27:22.359Z,176.62
2023-06-09T06:28:22.382Z,177.08
2023-06-09T06:29:22.404Z,177.09
2023-06-09T06:30:22.484Z,175.47
2023-06-09T06:31:22.478Z,175.67
2023-06-09T06:32:22.520Z,178.98
2023-06-09T06:33:22.505Z,175.26
2023-06-09T06:34:22.525Z,176.93
2023-06-09T06:35:22.571Z,179.12
2023-06-09T06:36:22.576Z,176.95
2023-06-09T06:37:22.590Z,174.07
2023-06-09T06:38:22.607Z,177.01
2023-06-09T06:39:22.625Z,177.20
2023-06-09T06:40:22.643Z,175.06
2023-06-09T06:41:22.660Z,177.53
2023-06-09T06:42:22.710Z,178.19
2023-06-09T06:43:22.724Z,177.52
2023-06-09T06:44:22.712Z,178.09
2023-06-09T06:45:22.712Z,176.13
2023-06-09T06:46:22.742Z,179.50
2023-06-09T06:47:22.722Z,176.20
2023-06-09T06:48:22.733Z,179.45
2023-06-09T06:49:22.761Z,175.02
2023-06-09T06:50:25.743Z,177.48
2023-06-09T06:51:22.726Z,179.74
2023-06-09T06:52:22.700Z,179.50
2023-06-09T06:53:22.677Z,182.56
2023-06-09T06:54:22.644Z,181.97
2023-06-09T06:55:22.628Z,181.85
2023-06-09T06:56:22.624Z,178.73
2023-06-09T06:57:22.583Z,179.14
2023-06-09T06:58:22.561Z,176.85
2023-06-09T06:59:22.541Z,177.87
2023-06-09T07:00:22.520Z,181.17
2023-06-09T07:01:22.516Z,181.64
2023-06-09T07:02:22.514Z,177.31
2023-06-09T07:03:22.447Z,179.11
2023-06-09T07:04:22.443Z,177.37
2023-06-09T07:05:22.384Z,180.72
2023-06-09T07:06:22.384Z,179.69
2023-06-09T07:07:22.331Z,180.22
2023-06-09T07:08:22.303Z,180.32
2023-06-09T07:09:22.794Z,175.73
2023-06-09T07:10:22.241Z,182.09
2023-06-09T07:11:22.218Z,180.06
2023-06-09T07:12:22.194Z,179.54
2023-06-09T07:13:22.157Z,182.58
2023-06-09T07:14:22.131Z,180.49
2023-06-09T07:15:22.136Z,179.92
2023-06-09T07:16:22.092Z,180.45
2023-06-09T07:17:22.115Z,179.08
2023-06-09T07:18:22.207Z,181.06
2023-06-09T07:19:22.020Z,182.08
2023-06-09T07:20:22.003Z,180.78
2023-06-09T07:21:21.975Z,180.67
2023-06-09T07:22:21.949Z,181.48
2023-06-09T07:23:21.918Z,181.39
2023-06-09T07:24:21.992Z,184.52
2023-06-09T07:25:21.877Z,182.52
2023-06-09T07:26:21.849Z,181.81
2023-06-09T07:27:21.818Z,180.49
2023-06-09T07:28:21.826Z,183.50
2023-06-09T07:29:21.769Z,182.08
2023-06-09T07:30:21.754Z,182.73
2023-06-09T07:31:21.837Z,178.73
2023-06-09T07:32:21.868Z,182.19
2023-06-09T07:33:21.664Z,183.46
2023-06-09T07:34:21.673Z,182.61
2023-06-09T07:35:21.616Z,182.36
2023-06-09T07:36:21.595Z,182.34
2023-06-09T07:37:21.605Z,184.44
2023-06-09T07:38:21.535Z,184.99
2023-06-09T07:39:21.515Z,183.82
2023-06-09T07:40:22.099Z,183.95
2023-06-09T07:41:21.440Z,184.05
2023-06-09T07:42:21.425Z,185.68
2023-06-09T07:43:21.389Z,185.06
2023-06-09T07:44:21.360Z,183.38
2023-06-09T07:45:21.339Z,182.41
2023-06-09T07:46:21.342Z,185.86
2023-06-09T07:47:21.339Z,185.20
2023-06-09T07:48:21.331Z,186.72
2023-06-09T07:49:21.801Z,182.97
2023-06-09T07:50:21.348Z,183.81
2023-06-09T07:51:21.358Z,183.76
2023-06-09T07:52:24.796Z,185.57
2023-06-09T07:53:21.376Z,187.91
2023-06-09T07:54:21.368Z,190.19
2023-06-09T07:55:21.311Z,187.27
2023-06-09T07:56:21.273Z,187.05
2023-06-09T07:57:21.252Z,188.63
2023-06-09T07:58:21.232Z,188.09
2023-06-09T07:59:21.212Z,185.38
2023-06-09T08:00:21.184Z,183.65
2023-06-09T08:01:21.154Z,185.57
2023-06-09T08:02:21.141Z,185.61
2023-06-09T08:03:21.182Z,186.61
2023-06-09T08:04:21.336Z,188.56
2023-06-09T08:05:21.130Z,183.92
2023-06-09T08:06:21.032Z,186.41
2023-06-09T08:07:21.003Z,187.02
2023-06-09T08:08:20.982Z,183.74
2023-06-09T08:09:20.952Z,185.48
2023-06-09T08:10:20.921Z,187.75
2023-06-09T08:11:20.906Z,186.58
2023-06-09T08:12:20.872Z,186.53
2023-06-09T08:13:20.862Z,188.42
2023-06-09T08:14:20.824Z,184.91
2023-06-09T08:15:20.782Z,185.20
2023-06-09T08:16:20.777Z,185.15
2023-06-09T08:17:23.267Z,182.71
2023-06-09T08:18:20.705Z,187.11
2023-06-09T08:19:20.663Z,187.57
2023-06-09T08:20:20.645Z,190.52
2023-06-09T08:21:20.608Z,187.39
2023-06-09T08:22:20.543Z,187.99
2023-06-09T08:23:20.514Z,190.49
2023-06-09T08:24:20.622Z,189.64
2023-06-09T08:25:20.455Z,189.05
2023-06-09T08:26:20.426Z,189.55
2023-06-09T08:27:20.386Z,188.90
2023-06-09T08:28:20.364Z,189.83
2023-06-09T08:29:20.331Z,185.59
2023-06-09T08:30:20.298Z,190.03
2023-06-09T08:31:20.320Z,188.66
2023-06-09T08:32:20.234Z,188.82
2023-06-09T08:33:20.249Z,190.41
2023-06-09T08:34:20.185Z,187.40
2023-06-09T08:35:20.150Z,187.55
2023-06-09T08:36:20.125Z,188.87
2023-06-09T08:37:20.091Z,187.58
2023-06-09T08:38:20.084Z,188.84
2023-06-09T08:39:20.045Z,189.01
2023-06-09T08:40:20.011Z,186.59
2023-06-09T08:41:19.985Z,189.26
2023-06-09T08:42:19.972Z,188.34
2023-06-09T08:43:19.930Z,189.91
2023-06-09T08:44:19.907Z,189.86
2023-06-09T08:45:19.876Z,188.44
2023-06-09T08:46:19.872Z,190.67
2023-06-09T08:47:19.844Z,187.70
2023-06-09T08:48:19.784Z,189.80
2023-06-09T08:49:19.760Z,191.89
2023-06-09T08:50:19.801Z,189.77
2023-06-09T08:51:19.682Z,189.76
2023-06-09T08:52:19.648Z,189.48
2023-06-09T08:53:19.614Z,187.79
2023-06-09T08:54:19.600Z,191.52
2023-06-09T08:55:19.556Z,188.48
2023-06-09T08:56:19.505Z,188.48
2023-06-09T08:57:19.487Z,188.48
2023-06-09T08:58:19.445Z,190.03
2023-06-09T08:59:19.407Z,192.53
2023-06-09T09:00:19.384Z,189.45
2023-06-09T09:01:19.414Z,188.79
2023-06-09T09:02:19.297Z,190.63
2023-06-09T09:03:19.302Z,189.18
2023-06-09T09:04:19.482Z,189.28
2023-06-09T09:05:19.221Z,187.99
2023-06-09T09:06:19.235Z,189.68
2023-06-09T09:07:19.254Z,189.57
2023-06-09T09:08:19.256Z,193.07
2023-06-09T09:09:19.270Z,190.00
2023-06-09T09:10:19.344Z,190.03
2023-06-09T09:11:19.314Z,191.32
2023-06-09T09:12:19.312Z,192.15
2023-06-09T09:13:19.339Z,189.28
2023-06-09T09:14:19.319Z,190.05
2023-06-09T09:15:19.328Z,189.48
2023-06-09T09:16:19.344Z,192.84
2023-06-09T09:17:19.334Z,192.73
2023-06-09T09:18:19.345Z,190.35
2023-06-09T09:19:19.344Z,191.01
2023-06-09T09:20:19.403Z,191.77
2023-06-09T09:21:19.364Z,191.63
2023-06-09T09:22:19.369Z,192.88
2023-06-09T09:23:19.390Z,191.63
2023-06-09T09:24:19.451Z,192.86
2023-06-09T09:25:19.394Z,192.30
2023-06-09T09:26:19.401Z,193.74
2023-06-09T09:27:19.420Z,192.14
2023-06-09T09:28:19.417Z,191.60
2023-06-09T09:29:19.427Z,190.27
2023-06-09T09:30:19.476Z,191.64
2023-06-09T09:31:19.448Z,194.66
2023-06-09T09:32:19.486Z,190.96
2023-06-09T09:33:19.443Z,190.86
2023-06-09T09:34:19.437Z,191.36
2023-06-09T09:35:19.438Z,191.30
2023-06-09T09:36:19.439Z,190.90
2023-06-09T09:37:19.434Z,191.03
2023-06-09T09:38:19.440Z,190.67
2023-06-09T09:39:19.432Z,191.58
2023-06-09T09:40:19.458Z,194.75
2023-06-09T09:41:19.441Z,195.34
2023-06-09T09:42:19.438Z,191.69
2023-06-09T09:43:19.445Z,191.26
2023-06-09T09:44:19.462Z,191.94
2023-06-09T09:45:19.452Z,191.99
2023-06-09T09:46:19.502Z,191.32
2023-06-09T09:47:19.458Z,192.01
2023-06-09T09:48:19.456Z,193.24
2023-06-09T09:49:19.458Z,192.04
2023-06-09T09:50:19.459Z,193.46
2023-06-09T09:51:20.423Z,194.35
2023-06-09T09:52:19.488Z,191.84
2023-06-09T09:53:19.487Z,191.84
2023-06-09T09:54:19.502Z,191.17
2023-06-09T09:55:19.495Z,195.19
2023-06-09T09:56:19.497Z,192.46
2023-06-09T09:57:19.510Z,192.79
2023-06-09T09:58:19.513Z,192.46
2023-06-09T09:59:19.515Z,192.39
2023-06-09T10:00:19.523Z,192.75
2023-06-09T10:01:19.550Z,195.32
2023-06-09T10:02:19.588Z,191.54
2023-06-09T10:03:19.670Z,193.41
2023-06-09T10:04:19.602Z,196.06
2023-06-09T10:05:19.587Z,192.30
2023-06-09T10:06:19.607Z,194.88
2023-06-09T10:07:19.602Z,191.87
2023-06-09T10:08:19.611Z,194.26
2023-06-09T10:09:19.630Z,194.59
2023-06-09T10:10:19.641Z,195.25
2023-06-09T10:11:19.667Z,194.05
2023-06-09T10:12:19.664Z,194.83
2023-06-09T10:13:19.691Z,195.50
2023-06-09T10:14:19.684Z,196.31
2023-06-09T10:15:19.694Z,196.75
2023-06-09T10:16:19.731Z,196.16
2023-06-09T10:17:19.758Z,195.23
2023-06-09T10:18:19.774Z,196.76
2023-06-09T10:19:19.751Z,198.53
2023-06-09T10:20:19.780Z,198.26
2023-06-09T10:21:19.796Z,196.66
2023-06-09T10:22:19.841Z,199.69
2023-06-09T10:23:19.815Z,196.87
2023-06-09T10:24:19.905Z,199.54
2023-06-09T10:25:19.853Z,199.17
2023-06-09T10:26:19.867Z,196.76
2023-06-09T10:27:19.881Z,198.41
2023-06-09T10:28:19.902Z,198.75
2023-06-09T10:29:19.916Z,195.69
2023-06-09T10:30:19.952Z,200.97
2023-06-09T10:31:19.995Z,198.94
2023-06-09T10:32:19.999Z,198.13
2023-06-09T10:33:19.994Z,197.00
2023-06-09T10:34:20.020Z,198.74
2023-06-09T10:35:20.052Z,200.12
2023-06-09T10:36:20.178Z,197.61
2023-06-09T10:37:20.060Z,198.79
2023-06-09T10:38:20.092Z,198.63
2023-06-09T10:39:20.902Z,199.33
2023-06-09T10:40:20.129Z,199.15
2023-06-09T10:41:20.179Z,201.91
2023-06-09T10:42:20.169Z,199.73
2023-06-09T10:43:20.215Z,199.17
2023-06-09T10:44:20.238Z,199.05
2023-06-09T10:45:20.247Z,201.70
2023-06-09T10:46:20.291Z,200.82
2023-06-09T10:47:20.287Z,199.52
2023-06-09T10:48:20.296Z,202.58
2023-06-09T10:49:20.312Z,199.74
2023-06-09T10:50:20.333Z,202.53
2023-06-09T10:51:20.373Z,200.54
2023-06-09T10:52:20.396Z,202.03
2023-06-09T10:53:20.420Z,199.01
2023-06-09T10:54:20.442Z,200.41
2023-06-09T10:55:20.470Z,199.92
2023-06-09T10:56:20.489Z,202.34
2023-06-09T10:57:20.513Z,203.78
2023-06-09T10:58:20.530Z,201.86
2023-06-09T10:59:20.561Z,199.09
2023-06-09T11:00:20.591Z,203.53
2023-06-09T11:01:20.628Z,199.30
2023-06-09T11:02:20.652Z,201.03
2023-06-09T11:03:20.720Z,200.39
2023-06-09T11:04:20.812Z,197.99
2023-06-09T11:05:20.751Z,200.21
2023-06-09T11:06:20.767Z,201.63
2023-06-09T11:07:20.805Z,199.49
2023-06-09T11:08:20.889Z,204.77
2023-06-09T11:09:20.856Z,203.83
2023-06-09T11:10:20.890Z,203.92
2023-06-09T11:11:20.935Z,202.86
2023-06-09T11:12:20.970Z,202.76
2023-06-09T11:13:21.013Z,202.36
2023-06-09T11:14:21.043Z,204.27
2023-06-09T11:15:21.073Z,201.45
2023-06-09T11:16:21.129Z,203.90
2023-06-09T11:17:21.172Z,205.34
2023-06-09T11:18:21.405Z,204.21
2023-06-09T11:19:21.251Z,202.02
2023-06-09T11:20:21.334Z,202.87
2023-06-09T11:21:21.435Z,203.93
2023-06-09T11:22:21.364Z,205.99
2023-06-09T11:23:21.372Z,205.72
2023-06-09T11:24:21.453Z,203.77
2023-06-09T11:25:21.503Z,202.18
2023-06-09T11:26:21.490Z,206.34
2023-06-09T11:27:21.532Z,207.46
2023-06-09T11:28:21.579Z,203.96
2023-06-09T11:29:21.576Z,205.27
2023-06-09T11:30:21.625Z,201.38
2023-06-09T11:31:21.745Z,200.76
2023-06-09T11:32:21.711Z,208.53
2023-06-09T11:33:21.736Z,203.63
2023-06-09T11:34:21.765Z,205.11
2023-06-09T11:35:21.770Z,206.62
2023-06-09T11:36:21.822Z,204.12
2023-06-09T11:37:21.862Z,206.24
2023-06-09T11:38:21.837Z,206.57
2023-06-09T11:39:21.846Z,203.32
2023-06-09T11:40:21.861Z,207.62
2023-06-09T11:41:21.864Z,207.32
2023-06-09T11:42:21.878Z,205.62
2023-06-09T11:43:21.898Z,204.35
2023-06-09T11:44:21.925Z,206.54
2023-06-09T11:45:21.930Z,208.91
2023-06-09T11:46:22.062Z,208.01
2023-06-09T11:47:21.981Z,209.53
2023-06-09T11:48:21.992Z,209.43
2023-06-09T11:49:21.960Z,209.77
2023-06-09T11:50:21.966Z,207.70
2023-06-09T11:51:21.972Z,206.34
2023-06-09T11:52:21.956Z,204.36
2023-06-09T11:53:21.967Z,204.56
2023-06-09T11:54:21.969Z,206.93
2023-06-09T11:55:21.974Z,206.65
2023-06-09T11:56:22.006Z,209.19
2023-06-09T11:57:22.009Z,211.20
2023-06-09T11:58:22.015Z,207.96
2023-06-09T11:59:30.516Z,210.77
2023-06-09T12:00:24.391Z,210.95
2023-06-09T12:01:22.072Z,211.62
2023-06-09T12:02:22.170Z,211.20
2023-06-09T12:03:22.220Z,211.82
2023-06-09T12:04:22.175Z,213.18
2023-06-09T12:05:22.183Z,211.03
2023-06-09T12:06:22.440Z,209.10
2023-06-09T12:07:22.200Z,212.50
2023-06-09T12:08:22.245Z,212.87
2023-06-09T12:09:22.221Z,208.79
2023-06-09T12:10:22.227Z,209.59
2023-06-09T12:11:22.251Z,212.37
2023-06-09T12:12:22.253Z,211.38
2023-06-09T12:13:22.263Z,211.66
2023-06-09T12:14:22.267Z,212.14
2023-06-09T12:15:22.293Z,209.70
2023-06-09T12:16:22.328Z,212.84
2023-06-09T12:17:22.388Z,213.33
2023-06-09T12:18:22.598Z,212.50
2023-06-09T12:19:22.350Z,211.94
2023-06-09T12:20:22.389Z,211.54
2023-06-09T12:21:22.379Z,213.27
2023-06-09T12:22:22.415Z,211.26
2023-06-09T12:23:22.425Z,211.81
2023-06-09T12:24:22.449Z,207.13
2023-06-09T12:25:22.410Z,212.58
2023-06-09T12:26:22.416Z,211.75
2023-06-09T12:27:22.394Z,212.60
2023-06-09T12:28:22.451Z,213.07